Flight Track Log - Related Links

Times and Time Zones

All times are in EDT time to prevent confusion due to time zone crossing. See the SWA378 flight status page for this flight to view local times or setup timezone preferences in your user account.

Time Position Orientation Groundspeed Altitude Reporting Facility
EDT Latitude Longitude Course Direction KTS MPH feet Rate Location/Type
Fri 11:33:34 AM 37.4000 -121.9667 38° Northeast 199 229 3,600  Level Northern Cal TRACON
Fri 11:34:34 AM 37.4333 -121.9333 38° Northeast 261 300 7,300 3,650 Climbing Northern Cal TRACON
Fri 11:35:34 AM 37.3833 -121.8667 133° Southeast 296 341 10,900 3,196 Climbing Northern Cal TRACON
Fri 11:36:21 AM 37.3353 -121.8108 137° Southeast 302 348 13,000 3,056 Climbing Oakland Center
Fri 11:37:22 AM 37.2642 -121.7275 137° Southeast 343 395 16,400 3,122 Climbing Oakland Center
Fri 11:38:24 AM 37.1853 -121.6425 139° Southeast 368 423 19,400 2,927 Climbing Oakland Center
Fri 11:39:25 AM 37.1042 -121.5486 137° Southeast 391 450 22,400 2,585 Climbing Oakland Center
Fri 11:40:27 AM 37.0156 -121.4525 139° Southeast 413 475 24,700 2,226 Climbing Oakland Center
Fri 11:41:29 AM 36.9233 -121.3508 139° Southeast 438 504 27,000 2,146 Climbing Oakland Center
Fri 11:42:30 AM 36.8303 -121.2467 138° Southeast 449 517 29,100 2,390 Climbing Oakland Center
Fri 11:43:32 AM 36.7264 -121.1344 139° Southeast 457 526 31,900 2,488 Climbing Oakland Center
Fri 11:44:33 AM 36.6317 -121.0336 139° Southeast 451 519 34,200 1,512 Climbing Oakland Center
Fri 11:45:35 AM 36.5389 -120.9300 138° Southeast 449 517 35,000 387 Climbing Oakland Center
Fri 11:46:37 AM 36.4256 -120.8075 139° Southeast 450 518 35,000  Level Oakland Center
Fri 11:47:38 AM 36.3375 -120.6975 135° Southeast 448 516 35,000  Level Oakland Center
Fri 11:48:40 AM 36.3100 -120.5381 102° East 470 541 35,000  Level Oakland Center
Fri 11:49:41 AM 36.3017 -120.3703 93° East 483 556 35,000  Level Oakland Center
Fri 11:50:43 AM 36.2622 -120.2200 108° East 481 554 35,000  Level Oakland Center
Fri 11:51:45 AM 36.1489 -120.1619 158° South 445 512 35,000  Level Oakland Center
Fri 11:52:46 AM 36.0306 -120.1181 163° South 439 505 35,000  Level Oakland Center
Fri 11:53:48 AM 35.9128 -120.0744 163° South 439 505 35,000  Level Oakland Center
Fri 11:54:50 AM 35.7931 -120.0308 164° South 443 510 35,000  Level Oakland Center
Fri 11:55:51 AM 35.6489 -119.9772 163° South 447 514 35,000 -319 Level Oakland Center
Fri 11:56:43 AM 35.5633 -119.9069 146° Southeast 461 531 34,400 -743 Descending Los Angeles Center
Fri 11:57:44 AM 35.4789 -119.8336 145° Southeast 460 529 33,600 -968 Descending Los Angeles Center
Fri 11:58:47 AM 35.3503 -119.7236 145° Southeast 464 534 32,400 -1,056 Descending Los Angeles Center
Fri 11:59:49 AM 35.2450 -119.6322 145° Southeast 464 534 31,400 -919 Descending Los Angeles Center
Fri 12:00:51 PM 35.1397 -119.5419 145° Southeast 461 531 30,500 -1,051 Descending Los Angeles Center
Fri 12:02:06 PM 34.9956 -119.4181 145° Southeast 452 520 29,000 -1,095 Descending Los Angeles Center
Fri 12:03:08 PM 34.8942 -119.3314 145° Southeast 449 517 28,000 -1,567 Descending Los Angeles Center
Fri 12:05:06 PM 34.6947 -119.1644 145° Southeast 432 497 24,300 -1,632 Descending Oakland Center
Fri 12:05:24 PM 34.6956 -119.1642 15° North 428 493 24,300 -2,074 Level Los Angeles Center
Fri 12:06:27 PM 34.5753 -119.0683 147° Southeast 411 473 21,500 -2,177 Descending Los Angeles Center
Fri 12:07:28 PM 34.5056 -119.0056 143° Southeast 392 451 19,800 -2,032 Descending Los Angeles Center
Fri 12:08:31 PM 34.4003 -118.9192 146° Southeast 378 435 17,300 -2,448 Descending Los Angeles Center
Fri 12:09:33 PM 34.2908 -118.8575 155° Southeast 357 411 14,700 -2,274 Descending Los Angeles Center
Fri 12:10:35 PM 34.1975 -118.8239 163° South 350 403 12,600 -1,839 Descending Los Angeles Center
Fri 12:11:37 PM 34.1081 -118.7897 162° South 338 389 10,900 -1,248 Descending Los Angeles Center
Fri 12:12:40 PM 34.0347 -118.7236 143° Southeast 314 361 10,000 -768 Descending Los Angeles Center
Fri 12:13:42 PM 34.0258 -118.6244 96° East 298 343 9,300 -1,016 Descending Los Angeles Center
Fri 12:14:44 PM 34.0164 -118.5250 97° East 297 342 7,900 -1,355 Descending Los Angeles Center
Fri 12:15:46 PM 34.0122 -118.4225 93° East 286 329 6,500 -1,306 Descending Los Angeles Center
Fri 12:16:48 PM 34.0214 -118.3467 82° East 285 328 5,200 -823 Descending Los Angeles Center
Fri 12:17:50 PM 34.0286 -118.2492 85° East 255 293 4,800 -677 Descending Los Angeles Center
Fri 12:18:52 PM 34.0339 -118.1847 84° East 203 234 3,800 -1,016 Descending Los Angeles Center
Fri 12:19:54 PM 34.0394 -118.1228 84° East 190 219 2,700 -725 Descending Los Angeles Center
Fri 12:20:23 PM 34.0167 -118.1000 140° Southeast 188 216 2,700 -270 Level Southern California TRACON
Fri 12:21:23 PM 33.9833 -118.1500 231° Southwest 190 219 2,300 -250 Descending Southern California TRACON
Fri 12:21:59 PM 33.9736 -118.1894 253° West 192 221 2,300 -62 Level Los Angeles Center
Fri 12:23:00 PM 33.9692 -118.2392 264° West 191 220 2,200 -244 Descending Los Angeles Center
Fri 12:24:02 PM 33.9628 -118.3006 263° West 189 217 1,800 -672 Descending Los Angeles Center
Fri 12:25:05 PM 33.9569 -118.3644 264° West 173 199 800 -672 Descending Los Angeles Center
Fri 12:26:07 PM 33.9508 -118.4122 261° West 152 175 400 -387 Descending Los Angeles Center
Fri 12:28:00 PM 33.9425 -118.4081 98° East  Level Estimated

Login

Don't have an account? Register now (free) for customized features, flight alerts, and more!